Time;durP1;ratioP1;P1;durP2;ratioP2;P2;SDS_P1;SDS_P2;PMS_P1;PMS_P2;Temp;Humidity;BMP_temperature;BMP_pressure;BME280_temperature;BME280_humidity;BME280_pressure;Samples;Min_cycle;Max_cycle;Signal;HPM_P1;HPM_P2
2023/04/23 15:11:43;;;;;;;2.80;1.93;;;;;;;20.28;36.84;96928.75;5443184;29;20243;-45
2023/04/23 15:14:45;;;;;;;5.23;2.90;;;;;;;20.27;36.78;96940.72;6067228;29;20322;-47
2023/04/23 15:17:48;;;;;;;3.50;2.43;;;;;;;20.21;37.17;96940.09;6071037;29;20609;-45
2023/04/23 15:20:50;;;;;;;4.33;2.50;;;;;;;20.12;38.16;96944.72;6079028;29;20224;-47
2023/04/23 15:23:52;;;;;;;4.63;2.33;;;;;;;20.09;38.50;96939.94;6079132;29;20255;-45
2023/04/23 15:26:58;;;;;;;4.47;2.57;;;;;;;20.05;39.05;96947.94;6079333;29;20325;-46
2023/04/23 15:30:00;;;;;;;3.23;2.20;;;;;;;19.87;40.02;96929.34;6079116;29;20702;-47
2023/04/23 15:33:02;;;;;;;5.60;2.50;;;;;;;20.03;37.21;96939.31;6079196;29;20228;-47
2023/04/23 15:36:04;;;;;;;3.87;2.30;;;;;;;19.93;38.98;96938.88;6074299;29;20223;-46
2023/04/23 15:39:07;;;;;;;3.70;2.70;;;;;;;19.91;37.99;96925.69;6078346;29;20307;-50
2023/04/23 15:42:10;;;;;;;4.50;2.70;;;;;;;19.88;38.12;96929.00;6075354;29;20291;-45
2023/04/23 15:45:12;;;;;;;3.90;2.30;;;;;;;19.87;38.74;96926.63;6068769;29;20216;-45
2023/04/23 15:48:15;;;;;;;3.00;2.40;;;;;;;19.84;37.89;96928.84;6083802;29;20796;-45
2023/04/23 15:51:17;;;;;;;3.87;2.80;;;;;;;19.95;38.21;96928.50;6079192;29;20227;-46
2023/04/23 15:54:20;;;;;;;5.47;2.47;;;;;;;19.79;38.38;96926.31;6078089;29;20224;-47
2023/04/23 15:57:22;;;;;;;3.70;2.80;;;;;;;19.70;37.59;96933.63;6077370;29;20236;-45
2023/04/23 16:00:24;;;;;;;5.93;2.87;;;;;;;19.62;38.95;96929.03;6075762;29;20246;-45
2023/04/23 16:03:27;;;;;;;3.73;2.80;;;;;;;19.56;39.24;96927.59;6077021;29;20315;-46
2023/04/23 16:06:30;;;;;;;3.93;2.57;;;;;;;19.58;39.50;96925.34;6078944;29;20239;-44
2023/04/23 16:09:35;;;;;;;5.63;3.10;;;;;;;19.55;38.88;96907.84;6077484;29;20256;-46
2023/04/23 16:12:37;;;;;;;4.23;2.90;;;;;;;19.51;39.11;96916.94;6077117;29;20251;-46
2023/04/23 16:15:40;;;;;;;3.70;2.73;;;;;;;19.48;39.60;96920.28;6076869;29;20244;-46
2023/04/23 16:18:42;;;;;;;3.50;2.67;;;;;;;19.52;38.63;96921.22;6076814;29;20612;-45
2023/04/23 16:21:45;;;;;;;3.87;2.70;;;;;;;19.35;39.20;96922.00;6077421;29;20236;-47
2023/04/23 16:24:47;;;;;;;2.70;2.30;;;;;;;19.20;41.60;96914.38;6076186;29;20242;-46
2023/04/23 16:27:50;;;;;;;4.20;2.57;;;;;;;19.11;42.75;96916.25;6076295;29;20253;-46
2023/04/23 16:30:52;;;;;;;3.57;2.40;;;;;;;18.92;44.78;96922.75;6076609;29;20251;-45
2023/04/23 16:33:55;;;;;;;3.77;2.33;;;;;;;18.76;44.59;96921.56;6076247;29;20327;-45
2023/04/23 16:36:57;;;;;;;2.47;2.27;;;;;;;18.64;44.89;96924.06;6076502;29;20256;-47
2023/04/23 16:40:00;;;;;;;2.77;2.30;;;;;;;18.55;45.69;96921.31;6076988;29;20649;-46
2023/04/23 16:43:04;;;;;;;3.77;2.93;;;;;;;18.40;46.94;96916.34;6075946;29;20236;-44
2023/04/23 16:46:08;;;;;;;5.50;2.90;;;;;;;18.31;47.89;96916.31;6077216;29;20445;-45
2023/04/23 16:49:11;;;;;;;3.23;2.20;;;;;;;18.22;47.22;96910.84;6076003;29;20639;-46
2023/04/23 16:52:13;;;;;;;3.20;2.60;;;;;;;18.15;48.02;96915.91;6076708;29;20339;-44
2023/04/23 16:55:15;;;;;;;5.10;3.00;;;;;;;18.05;48.56;96916.19;6074806;29;20240;-47
2023/04/23 16:58:18;;;;;;;3.90;2.70;;;;;;;17.93;49.14;96919.44;6075626;29;20236;-46
2023/04/23 17:01:20;;;;;;;3.30;2.50;;;;;;;17.83;49.41;96913.50;6082165;29;20326;-45
2023/04/23 17:04:22;;;;;;;3.97;2.70;;;;;;;17.76;48.88;96900.47;6078233;29;20232;-44
2023/04/23 17:07:25;;;;;;;3.40;2.70;;;;;;;17.70;48.13;96897.06;6072261;29;20290;-44
2023/04/23 17:10:37;;;;;;;4.90;2.70;;;;;;;17.65;49.09;96904.47;6074244;29;20676;-44
2023/04/23 17:13:44;;;;;;;4.70;2.83;;;;;;;17.56;49.30;96915.19;6076323;29;20255;-48
2023/04/23 17:16:46;;;;;;;3.60;1.97;;;;;;;17.60;45.75;96916.16;6076188;29;20228;-45
2023/04/23 17:19:50;;;;;;;3.67;2.00;;;;;;;17.57;45.48;96910.59;6059318;29;20897;-45
2023/04/23 17:22:52;;;;;;;2.47;1.50;;;;;;;17.46;45.41;96913.53;6075953;29;20246;-44
2023/04/23 17:25:55;;;;;;;2.23;1.70;;;;;;;17.24;46.61;96911.59;6062780;29;20240;-44
2023/04/23 17:28:58;;;;;;;2.20;1.70;;;;;;;17.10;47.44;96904.66;6068971;29;20241;-44
2023/04/23 17:32:01;;;;;;;2.17;1.97;;;;;;;17.02;46.47;96885.44;6066798;29;20366;-44
2023/04/23 17:35:06;;;;;;;3.97;1.70;;;;;;;17.09;46.42;96894.97;6069418;29;20240;-44
2023/04/23 17:38:12;;;;;;;2.17;1.93;;;;;;;16.96;49.67;96905.47;6080243;29;20252;-46
2023/04/23 17:41:21;;;;;;;4.47;1.73;;;;;;;16.74;49.08;96905.41;6074997;29;20235;-47
2023/04/23 17:44:31;;;;;;;3.10;1.67;;;;;;;16.66;48.67;96900.72;6074596;29;20233;-45
2023/04/23 17:47:36;;;;;;;1.20;1.10;;;;;;;16.33;48.39;96870.44;6077048;29;20265;-46
2023/04/23 17:50:41;;;;;;;1.70;1.43;;;;;;;16.40;49.08;96893.16;6075333;29;20251;-48
2023/04/23 17:53:49;;;;;;;1.30;1.20;;;;;;;16.30;49.34;96893.31;6060135;29;20711;-44
2023/04/23 17:56:55;;;;;;;2.67;1.23;;;;;;;16.22;50.56;96894.03;6074280;29;20376;-44
2023/04/23 18:00:01;;;;;;;1.53;1.00;;;;;;;16.08;50.67;96896.69;6068905;29;20283;-44
2023/04/23 18:03:16;;;;;;;1.70;1.40;;;;;;;15.93;53.27;96894.28;6078198;29;20213;-45
2023/04/23 18:06:19;;;;;;;9.07;1.80;;;;;;;15.61;56.75;96895.81;6077719;29;20201;-44
2023/04/23 18:09:22;;;;;;;1.60;1.40;;;;;;;15.40;55.35;96883.81;6070127;29;20714;-44
2023/04/23 18:12:27;;;;;;;1.47;1.23;;;;;;;15.40;55.35;96897.25;6073182;29;20236;-49
2023/04/23 18:15:34;;;;;;;1.77;1.20;;;;;;;15.32;55.55;96897.91;6076407;29;20233;-44
2023/04/23 18:18:37;;;;;;;2.70;1.60;;;;;;;15.04;58.54;96891.59;6074326;29;20400;-44
2023/04/23 18:21:40;;;;;;;2.10;1.50;;;;;;;14.87;58.22;96895.56;6056986;29;20240;-43
2023/04/23 18:24:43;;;;;;;2.00;1.10;;;;;;;14.78;58.06;96896.50;6073431;29;20232;-44
2023/04/23 18:27:46;;;;;;;2.17;1.50;;;;;;;14.67;58.94;96901.97;6074352;29;20835;-44
2023/04/23 18:30:49;;;;;;;4.90;1.63;;;;;;;14.54;59.61;96909.94;6074580;29;20782;-46
2023/04/23 18:33:57;;;;;;;1.83;1.13;;;;;;;14.49;59.66;96910.81;6073837;29;20707;-47
2023/04/23 18:37:03;;;;;;;1.87;1.47;;;;;;;14.42;59.45;96910.28;6072672;29;20384;-49
2023/04/23 18:40:07;;;;;;;1.83;1.27;;;;;;;14.35;59.77;96913.31;6075981;29;20646;-46
2023/04/23 18:43:10;;;;;;;7.93;1.80;;;;;;;14.16;61.35;96913.25;6054035;29;20248;-48
2023/04/23 18:46:16;;;;;;;2.13;1.50;;;;;;;14.02;61.47;96914.19;6072542;29;20238;-45
2023/04/23 18:49:42;;;;;;;1.80;1.53;;;;;;;13.89;61.70;96916.47;6057252;29;20715;-44
2023/04/23 18:52:45;;;;;;;1.27;1.17;;;;;;;13.72;62.88;96909.91;6073125;29;20245;-46
2023/04/23 18:55:49;;;;;;;4.10;1.87;;;;;;;13.62;62.70;96913.47;6073315;29;20335;-44
2023/04/23 18:58:52;;;;;;;7.33;1.70;;;;;;;13.30;64.49;96876.50;6072848;29;20286;-45
2023/04/23 19:01:55;;;;;;;3.73;1.63;;;;;;;13.31;64.29;96908.34;6072555;29;20765;-43
2023/04/23 19:04:58;;;;;;;3.00;1.37;;;;;;;13.20;64.45;96906.78;6072771;29;20240;-44
2023/04/23 19:08:02;;;;;;;1.50;1.40;;;;;;;13.16;64.67;96921.78;6057557;29;20276;-43
2023/04/23 19:11:05;;;;;;;2.27;1.70;;;;;;;13.05;64.98;96906.88;6055987;29;20292;-47
2023/04/23 19:14:08;;;;;;;3.47;1.80;;;;;;;12.95;65.68;96910.38;6072606;29;20324;-45
2023/04/23 19:17:12;;;;;;;2.87;1.73;;;;;;;12.89;65.63;96914.97;6072155;29;20243;-43
2023/04/23 19:20:20;;;;;;;5.53;2.03;;;;;;;12.76;66.85;96896.88;6070427;29;20243;-44
2023/04/23 19:23:23;;;;;;;1.77;1.63;;;;;;;12.60;67.10;96896.13;6072554;29;20235;-44
2023/04/23 19:26:26;;;;;;;2.10;1.80;;;;;;;12.53;67.72;96902.84;6072437;29;20258;-46
2023/04/23 19:29:28;;;;;;;3.83;2.00;;;;;;;12.43;68.75;96893.00;6072726;29;20232;-44
2023/04/23 19:32:34;;;;;;;3.13;1.80;;;;;;;12.32;69.07;96894.91;6073625;29;20596;-44
2023/04/23 19:35:37;;;;;;;5.00;1.90;;;;;;;12.26;69.61;96892.50;6071185;29;20329;-46
2023/04/23 19:38:41;;;;;;;2.10;1.80;;;;;;;12.15;70.00;96889.06;6073060;29;20248;-44
2023/04/23 19:41:43;;;;;;;4.37;2.17;;;;;;;12.17;69.60;96883.44;6071735;29;20233;-44
2023/04/23 19:44:48;;;;;;;2.30;2.10;;;;;;;12.19;69.05;96884.78;6073253;29;20607;-44
2023/04/23 19:47:51;;;;;;;2.37;2.17;;;;;;;12.22;68.61;96881.59;6075538;29;20239;-45
2023/04/23 19:50:54;;;;;;;3.87;2.13;;;;;;;12.22;70.72;96880.78;6071419;29;20577;-43
2023/04/23 19:53:59;;;;;;;2.97;2.10;;;;;;;12.18;69.72;96877.06;6073641;29;20243;-45
2023/04/23 19:57:02;;;;;;;5.87;2.37;;;;;;;12.20;69.33;96885.59;6071398;29;20275;-49
2023/04/23 20:00:06;;;;;;;2.30;2.03;;;;;;;12.26;69.20;96881.81;6072238;29;20749;-45
2023/04/23 20:03:09;;;;;;;2.43;2.10;;;;;;;12.31;70.13;96887.94;6072325;29;20217;-47
2023/04/23 20:06:13;;;;;;;2.63;2.07;;;;;;;12.27;70.69;96894.13;6072183;29;20598;-46
2023/04/23 20:09:20;;;;;;;3.73;1.90;;;;;;;12.26;71.74;96885.28;6059787;29;20263;-44
2023/04/23 20:12:23;;;;;;;3.40;2.33;;;;;;;12.23;72.84;96867.16;6062957;29;20580;-46
2023/04/23 20:15:25;;;;;;;2.90;2.23;;;;;;;11.41;72.84;96743.78;6074623;29;20232;-45
2023/04/23 20:18:33;;;;;;;2.97;2.53;;;;;;;12.14;74.11;96852.75;6070703;29;20471;-44
2023/04/23 20:21:41;;;;;;;3.83;2.57;;;;;;;12.10;75.31;96841.03;6073085;29;20240;-45
2023/04/23 20:24:45;;;;;;;2.77;2.27;;;;;;;11.96;77.01;96840.78;6072161;29;20251;-46
2023/04/23 20:27:49;;;;;;;5.27;2.67;;;;;;;11.94;78.58;96832.28;6072811;29;20705;-46
2023/04/23 20:30:52;;;;;;;6.23;2.70;;;;;;;11.92;78.46;96838.94;6075843;29;20776;-48
2023/04/23 20:33:55;;;;;;;3.33;3.00;;;;;;;11.83;79.71;96825.38;6059905;29;20240;-45
2023/04/23 20:37:01;;;;;;;4.40;2.80;;;;;;;11.81;80.12;96833.59;6059362;29;20236;-48
2023/04/23 20:40:04;;;;;;;4.03;3.63;;;;;;;11.60;80.65;96789.34;6076550;29;20248;-45
2023/04/23 20:43:07;;;;;;;4.83;3.70;;;;;;;11.80;81.33;96834.66;6076143;29;20262;-45
2023/04/23 20:46:09;;;;;;;7.27;4.10;;;;;;;11.78;82.21;96838.69;6077546;29;20247;-45
2023/04/23 20:49:11;;;;;;;8.70;4.20;;;;;;;11.73;81.89;96836.81;6075355;29;20735;-45
2023/04/23 20:52:14;;;;;;;4.60;3.97;;;;;;;11.68;83.07;96834.16;6076497;29;20245;-47
2023/04/23 20:55:16;;;;;;;5.73;4.47;;;;;;;11.67;82.89;96835.22;6077143;29;20236;-47
2023/04/23 20:58:18;;;;;;;5.10;4.60;;;;;;;11.64;84.14;96838.44;6075883;29;20700;-44
2023/04/23 21:01:20;;;;;;;4.63;4.23;;;;;;;11.59;83.57;96849.13;6074851;29;20244;-48
2023/04/23 21:04:22;;;;;;;5.67;4.00;;;;;;;11.59;83.27;96849.91;6075383;29;20232;-48
2023/04/23 21:07:25;;;;;;;3.97;3.60;;;;;;;11.60;83.27;96856.84;6076380;29;20299;-49
2023/04/23 21:10:27;;;;;;;7.20;4.77;;;;;;;11.60;83.56;96846.16;6073459;29;20286;-49
2023/04/23 21:13:29;;;;;;;6.53;5.30;;;;;;;11.59;85.08;96846.44;6073680;29;20250;-48
2023/04/23 21:16:31;;;;;;;5.07;4.33;;;;;;;11.52;85.14;96846.69;6075694;29;20250;-49
2023/04/23 21:19:34;;;;;;;5.17;4.67;;;;;;;11.46;84.92;96838.97;6075294;29;20239;-47
2023/04/23 21:22:36;;;;;;;8.17;4.97;;;;;;;11.41;85.22;96839.78;6075899;29;20338;-45
2023/04/23 21:25:38;;;;;;;8.07;5.60;;;;;;;11.17;85.84;96810.19;6072467;29;20236;-47
2023/04/23 21:28:41;;;;;;;7.83;5.00;;;;;;;11.30;85.82;96825.66;6073799;29;20234;-47
2023/04/23 21:31:50;;;;;;;8.07;5.50;;;;;;;11.30;86.14;96825.66;6074606;29;20254;-44
2023/04/23 21:34:53;;;;;;;5.93;5.00;;;;;;;11.30;86.18;96819.53;6075036;29;20326;-43
2023/04/23 21:37:55;;;;;;;7.60;5.87;;;;;;;11.29;85.91;96823.25;6075568;29;20246;-43
2023/04/23 21:40:57;;;;;;;6.03;5.33;;;;;;;11.25;86.24;96817.66;6074733;29;20243;-45
2023/04/23 21:43:59;;;;;;;8.20;5.40;;;;;;;11.23;86.25;96811.81;6075345;29;20239;-43
2023/04/23 21:47:02;;;;;;;9.63;4.73;;;;;;;11.24;86.11;96809.94;6078285;29;20253;-45
2023/04/23 21:50:05;;;;;;;5.67;5.13;;;;;;;11.24;86.42;96802.72;6074662;29;20318;-45
2023/04/23 21:53:07;;;;;;;6.63;4.97;;;;;;;11.23;86.48;96793.16;6075587;29;20242;-47
2023/04/23 21:56:09;;;;;;;6.53;5.40;;;;;;;11.20;86.00;96795.53;6072280;29;20706;-43
2023/04/23 21:59:12;;;;;;;6.27;4.33;;;;;;;11.17;86.15;96790.72;6074614;29;20258;-44
2023/04/23 22:02:14;;;;;;;5.97;4.63;;;;;;;11.14;86.04;96786.75;6073608;29;20243;-47
2023/04/23 22:05:20;;;;;;;4.53;4.13;;;;;;;11.08;85.92;96791.28;6073133;29;20228;-43
2023/04/23 22:08:23;;;;;;;6.47;4.30;;;;;;;11.05;85.98;96781.13;6073255;29;20240;-43
2023/04/23 22:11:25;;;;;;;5.93;4.30;;;;;;;10.99;85.86;96782.22;6070304;29;20262;-43
2023/04/23 22:14:28;;;;;;;6.63;3.80;;;;;;;10.89;85.49;96781.41;6075070;29;20661;-44
2023/04/23 22:17:30;;;;;;;4.37;3.43;;;;;;;10.87;85.68;96779.00;6073817;29;20243;-44
2023/04/23 22:20:32;;;;;;;4.97;3.70;;;;;;;10.77;85.29;96757.69;6057252;29;20249;-45
2023/04/23 22:23:34;;;;;;;3.43;3.13;;;;;;;10.72;85.11;96769.13;6071142;29;20232;-43
2023/04/23 22:26:37;;;;;;;4.60;3.73;;;;;;;10.72;85.10;96771.00;6073685;29;20238;-44
2023/04/23 22:29:39;;;;;;;4.60;4.13;;;;;;;10.64;85.79;96767.00;6074804;29;20231;-43
2023/04/23 22:32:41;;;;;;;4.00;3.60;;;;;;;10.58;85.80;96763.50;6074524;29;20239;-43
2023/04/23 22:35:44;;;;;;;5.10;4.03;;;;;;;10.53;85.39;96766.16;6076422;29;20322;-46
2023/04/23 22:38:46;;;;;;;5.10;3.57;;;;;;;10.46;85.35;96760.28;6073979;29;20633;-44
2023/04/23 22:41:48;;;;;;;6.00;4.03;;;;;;;10.35;85.57;96752.56;6077375;29;20748;-43
2023/04/23 22:44:50;;;;;;;4.90;4.27;;;;;;;10.26;86.15;96757.59;6078003;29;20234;-45
2023/04/23 22:47:53;;;;;;;5.50;4.10;;;;;;;10.23;86.69;96750.88;6075283;29;20317;-47
2023/04/23 22:50:56;;;;;;;5.50;3.90;;;;;;;10.20;86.03;96761.28;6074176;29;20672;-44
2023/04/23 22:53:58;;;;;;;4.97;3.67;;;;;;;10.12;86.29;96746.59;6075583;29;20290;-46
2023/04/23 22:57:01;;;;;;;5.33;3.47;;;;;;;10.06;86.25;96753.78;6073772;29;20235;-44
2023/04/23 23:00:06;;;;;;;5.30;4.67;;;;;;;9.97;86.19;96758.00;6074656;29;20248;-43
2023/04/23 23:03:09;;;;;;;4.27;3.50;;;;;;;9.91;86.13;96748.41;6071253;29;20763;-43
2023/04/23 23:06:11;;;;;;;4.13;3.67;;;;;;;9.87;85.87;96747.31;6073343;29;20316;-45
2023/04/23 23:09:14;;;;;;;4.97;4.10;;;;;;;9.82;85.78;96740.09;6071817;29;20319;-45
2023/04/23 23:12:16;;;;;;;4.20;3.80;;;;;;;9.75;85.58;96728.09;6073336;29;20270;-44
2023/04/23 23:15:19;;;;;;;4.30;3.90;;;;;;;9.69;86.27;96718.50;6073031;29;20710;-47
2023/04/23 23:18:21;;;;;;;4.17;3.73;;;;;;;9.56;85.57;96719.78;6072833;29;20256;-45
2023/04/23 23:21:23;;;;;;;4.70;4.30;;;;;;;9.44;85.80;96713.88;6070438;29;20239;-43
2023/04/23 23:24:25;;;;;;;4.73;3.90;;;;;;;9.36;86.15;96717.81;6072873;29;20238;-45
2023/04/23 23:27:28;;;;;;;5.00;4.47;;;;;;;9.24;86.38;96711.88;6072571;29;20237;-43
2023/04/23 23:30:30;;;;;;;5.97;4.20;;;;;;;9.16;86.48;96704.38;6072785;29;20244;-44
2023/04/23 23:33:34;;;;;;;7.27;4.57;;;;;;;9.08;86.93;96699.56;6072617;29;20652;-43
2023/04/23 23:36:36;;;;;;;5.77;4.67;;;;;;;9.11;87.03;96712.31;6073557;29;20243;-44
2023/04/23 23:39:38;;;;;;;5.70;4.90;;;;;;;8.98;87.10;96673.75;6072303;29;20244;-44
2023/04/23 23:42:41;;;;;;;4.97;4.10;;;;;;;9.05;87.06;96696.34;6072421;29;20269;-45
2023/04/23 23:45:43;;;;;;;6.30;4.50;;;;;;;8.71;87.54;96653.38;6075906;29;20241;-44
2023/04/23 23:48:45;;;;;;;6.07;4.70;;;;;;;8.94;87.49;96691.25;6069702;29;20238;-43
2023/04/23 23:51:48;;;;;;;8.47;4.57;;;;;;;8.91;87.43;96686.44;6073634;29;20247;-44
2023/04/23 23:54:50;;;;;;;5.30;4.80;;;;;;;8.88;87.90;96681.66;6073010;29;20246;-44
2023/04/23 23:57:52;;;;;;;6.50;5.30;;;;;;;8.88;87.74;96684.31;6071541;29;20252;-43
